General Aviation Weather

Text Reports

Enter one or more of the following location identifiers separated by a space:

Zip Code, Four-Character ICAO or Three-Character IATA airport codes.

METAR - Aviation Routine Weather Report
KGOP - Gatesville, Texas
Updated at 6:35 PM GMT on August 04, 2015 (1:35 PM CDT):
METAR KGOP 041835Z AUTO 18006KT 10SM FEW060 34/19 A2997 RMK AO2
TAF - Terminal Area Forecast
KGOP - Gatesville, Texas
Updated at 6:35 PM GMT on August 04, 2015 (1:35 PM CDT):
No TAF is currently available for this location.
Decoded:
No decoded TAF is available.
PIREP - Pilot Weather Report
KGOP - Gatesville, Texas
Updated at 6:35 PM GMT on August 04, 2015 (1:35 PM CDT):
No PIREP is currently available for this location.
AIRMET - Airmens Meteorological Information
KGOP - Gatesville, Texas
Updated at 6:35 PM GMT on August 04, 2015 (1:35 PM CDT):
No AIRMET is currently available for this location.
SIGMET - Significant Meteorological Information
KGOP - Gatesville, Texas
Updated at 6:35 PM GMT on August 04, 2015 (1:35 PM CDT):
No SIGMET is currently available for this location.
NOTAM - Notice to Airmen
KGOP - Gatesville, Texas
Updated at 6:35 PM GMT on August 04, 2015 (1:35 PM CDT):
No NOTAM is currently available for this location.
Forecast Area
KGOP - Gatesville, Texas
Updated at 6:35 PM GMT on August 04, 2015 (1:35 PM CDT):
No NOTAM is currently available for this location.
Aviation Weather Maps